createdAt,value
2023-03-21T00:01:00.197Z,99.90
2023-03-21T00:04:22.392Z,99.90
2023-03-21T00:07:44.015Z,99.90
2023-03-21T00:11:06.419Z,99.90
2023-03-21T00:14:28.221Z,99.90
2023-03-21T00:17:51.193Z,99.90
2023-03-21T00:24:55.259Z,99.90
2023-03-21T00:28:17.002Z,99.90
2023-03-21T00:31:38.592Z,99.90
2023-03-21T00:35:26.139Z,99.90
2023-03-21T00:38:43.342Z,99.90
2023-03-21T00:42:04.978Z,99.90
2023-03-21T00:45:26.752Z,99.90
2023-03-21T00:48:48.324Z,99.90
2023-03-21T00:52:30.628Z,99.90
2023-03-21T00:55:52.814Z,99.90
2023-03-21T00:59:14.386Z,99.90
2023-03-21T01:02:36.212Z,99.90
2023-03-21T01:05:57.762Z,99.90
2023-03-21T01:09:21.505Z,99.90
2023-03-21T01:12:43.097Z,99.90
2023-03-21T01:16:05.294Z,99.90
2023-03-21T01:19:40.731Z,99.90
2023-03-21T01:23:08.991Z,99.90
2023-03-21T01:26:31.943Z,99.90
2023-03-21T01:29:53.532Z,99.90
2023-03-21T01:33:15.362Z,99.90
2023-03-21T01:36:36.949Z,99.90
2023-03-21T01:39:58.587Z,99.90
2023-03-21T01:43:23.326Z,99.90
2023-03-21T01:46:54.376Z,99.90
2023-03-21T01:50:22.308Z,99.90
2023-03-21T01:53:44.560Z,99.90
2023-03-21T01:57:08.270Z,99.90
2023-03-21T02:00:32.111Z,99.90
2023-03-21T02:03:53.976Z,99.90
2023-03-21T02:07:16.360Z,99.90
2023-03-21T02:10:37.973Z,99.90
2023-03-21T02:14:06.780Z,99.90
2023-03-21T02:17:33.388Z,99.90
2023-03-21T02:21:07.766Z,99.90
2023-03-21T02:25:01.323Z,99.90
2023-03-21T02:28:28.077Z,99.90
2023-03-21T02:31:53.126Z,99.90
2023-03-21T02:35:22.219Z,99.90
2023-03-21T02:38:49.005Z,99.90
2023-03-21T02:42:14.022Z,99.90
2023-03-21T02:45:38.689Z,99.90
2023-03-21T02:49:02.487Z,99.90
2023-03-21T02:52:37.952Z,99.90
2023-03-21T02:56:02.785Z,99.90
2023-03-21T02:59:24.705Z,99.90
2023-03-21T03:02:47.536Z,99.90
2023-03-21T03:06:16.534Z,99.90
2023-03-21T03:09:43.246Z,99.90
2023-03-21T03:13:11.534Z,99.90
2023-03-21T03:16:37.656Z,99.90
2023-03-21T03:20:15.481Z,99.90
2023-03-21T03:23:41.773Z,99.90
2023-03-21T03:27:06.476Z,99.90
2023-03-21T03:30:39.296Z,99.90
2023-03-21T03:34:05.876Z,99.90
2023-03-21T03:37:29.631Z,99.90
2023-03-21T03:40:53.021Z,99.90
2023-03-21T03:44:14.647Z,99.90
2023-03-21T03:47:50.780Z,99.90
2023-03-21T03:51:20.609Z,99.90
2023-03-21T03:54:43.409Z,99.90
2023-03-21T03:58:13.152Z,99.90
2023-03-21T04:01:41.423Z,99.90
2023-03-21T04:05:04.864Z,99.90
2023-03-21T04:08:26.544Z,99.90
2023-03-21T04:11:48.340Z,99.90
2023-03-21T04:15:11.293Z,99.90
2023-03-21T04:18:32.995Z,99.90
2023-03-21T04:21:55.934Z,99.90
2023-03-21T04:25:30.604Z,99.90
2023-03-21T04:28:54.248Z,99.90
2023-03-21T04:32:15.896Z,99.90
2023-03-21T04:35:37.850Z,99.90
2023-03-21T04:39:00.843Z,99.90
2023-03-21T04:42:22.451Z,99.90
2023-03-21T04:45:44.378Z,99.90
2023-03-21T04:49:06.285Z,99.90
2023-03-21T04:52:27.852Z,99.90
2023-03-21T04:55:54.139Z,99.90
2023-03-21T04:59:16.904Z,99.90
2023-03-21T05:02:38.682Z,99.90
2023-03-21T05:06:00.261Z,99.90
2023-03-21T05:09:22.282Z,99.90
2023-03-21T05:12:45.258Z,99.90
2023-03-21T05:16:07.679Z,99.90
2023-03-21T05:19:30.364Z,99.90
2023-03-21T05:22:53.681Z,99.90
2023-03-21T05:26:15.272Z,99.90
2023-03-21T05:29:38.219Z,99.90
2023-03-21T05:32:59.902Z,99.90
2023-03-21T05:36:21.485Z,99.90
2023-03-21T05:39:43.098Z,99.90
2023-03-21T05:43:07.052Z,99.90
2023-03-21T05:46:32.365Z,99.90
2023-03-21T05:49:54.040Z,99.90
2023-03-21T05:53:15.652Z,99.90
2023-03-21T05:56:37.245Z,99.90
2023-03-21T05:59:58.804Z,99.90
2023-03-21T06:03:21.831Z,99.90
2023-03-21T06:06:43.674Z,99.90
2023-03-21T06:10:05.695Z,99.90
2023-03-21T06:13:27.439Z,99.90
2023-03-21T06:16:49.046Z,99.90
2023-03-21T06:20:12.848Z,99.90
2023-03-21T06:23:34.434Z,99.90
2023-03-21T06:26:56.052Z,99.90
2023-03-21T06:30:17.886Z,99.90
2023-03-21T06:33:39.468Z,99.90
2023-03-21T06:37:02.487Z,99.90
2023-03-21T06:40:24.088Z,99.90
2023-03-21T06:43:45.879Z,99.90
2023-03-21T06:47:07.622Z,99.90
2023-03-21T06:50:29.281Z,99.90
2023-03-21T06:53:52.233Z,99.90
2023-03-21T06:57:13.821Z,99.90
2023-03-21T07:00:35.473Z,99.90
2023-03-21T07:03:57.556Z,99.90
2023-03-21T07:07:19.147Z,99.90
2023-03-21T07:10:44.283Z,99.90
2023-03-21T07:14:06.818Z,99.90
2023-03-21T07:17:28.547Z,99.90
2023-03-21T07:20:50.688Z,99.90
2023-03-21T07:24:12.263Z,99.90
2023-03-21T07:27:35.185Z,99.90
2023-03-21T07:30:58.030Z,99.90
2023-03-21T07:34:19.599Z,99.90
2023-03-21T07:37:41.544Z,99.90
2023-03-21T07:41:03.165Z,99.90
2023-03-21T07:44:26.895Z,99.90
2023-03-21T07:47:48.513Z,99.90
2023-03-21T07:51:10.208Z,99.90
2023-03-21T07:57:53.885Z,99.20
2023-03-21T08:01:16.863Z,97.50
2023-03-21T08:04:38.440Z,94.60
2023-03-21T08:08:00.253Z,95.40
2023-03-21T08:11:22.053Z,93.00
2023-03-21T08:14:43.675Z,92.50
2023-03-21T08:18:06.734Z,92.30
2023-03-21T08:21:28.317Z,90.80
2023-03-21T08:24:49.928Z,89.20
2023-03-21T08:28:11.636Z,90.10
2023-03-21T08:31:33.218Z,91.10
2023-03-21T08:34:57.794Z,91.90
2023-03-21T08:38:19.384Z,90.90
2023-03-21T08:41:41.003Z,88.30
2023-03-21T08:45:02.615Z,90.60
2023-03-21T08:48:24.223Z,89.20
2023-03-21T08:51:47.355Z,90.40
2023-03-21T08:55:09.189Z,90.50
2023-03-21T08:58:30.766Z,89.30
2023-03-21T09:01:52.391Z,86.60
2023-03-21T09:05:14.037Z,84.70
2023-03-21T09:08:37.037Z,83.30
2023-03-21T09:11:58.648Z,80.10
2023-03-21T09:15:20.674Z,82.10
2023-03-21T09:18:42.263Z,86.80
2023-03-21T09:22:03.934Z,82.60
2023-03-21T09:25:27.000Z,82.70
2023-03-21T09:28:48.853Z,79.50
2023-03-21T09:32:10.551Z,79.50
2023-03-21T09:35:32.504Z,84.50
2023-03-21T09:38:54.340Z,81.00
2023-03-21T09:42:20.847Z,80.80
2023-03-21T09:45:46.915Z,79.10
2023-03-21T09:49:11.519Z,80.30
2023-03-21T09:52:37.716Z,81.20
2023-03-21T09:55:59.721Z,77.90
2023-03-21T09:59:29.060Z,78.00
2023-03-21T10:02:51.572Z,78.60
2023-03-21T10:06:14.180Z,77.40
2023-03-21T10:09:35.806Z,79.20
2023-03-21T10:12:57.395Z,77.20
2023-03-21T10:16:23.321Z,76.30
2023-03-21T10:19:46.295Z,77.80
2023-03-21T10:23:08.837Z,80.00
2023-03-21T10:26:30.422Z,81.40
2023-03-21T10:29:52.019Z,84.10
2023-03-21T10:33:16.533Z,79.90
2023-03-21T10:36:38.263Z,81.50
2023-03-21T10:39:59.845Z,81.60
2023-03-21T10:43:32.228Z,84.40
2023-03-21T10:46:54.774Z,84.60
2023-03-21T10:50:19.154Z,84.00
2023-03-21T10:53:45.192Z,80.80
2023-03-21T10:57:08.767Z,81.20
2023-03-21T11:00:34.628Z,82.80
2023-03-21T11:03:57.731Z,80.80
2023-03-21T11:07:20.720Z,82.00
2023-03-21T11:10:50.129Z,82.20
2023-03-21T11:14:24.523Z,79.70
2023-03-21T11:17:46.960Z,81.00
2023-03-21T11:21:09.709Z,78.10
2023-03-21T11:24:33.253Z,82.30
2023-03-21T11:27:55.552Z,80.00
2023-03-21T11:31:17.483Z,82.30
2023-03-21T11:34:43.385Z,82.20
2023-03-21T11:38:05.979Z,81.40
2023-03-21T11:41:30.625Z,83.40
2023-03-21T11:44:57.601Z,80.10
2023-03-21T11:48:19.178Z,82.50
2023-03-21T11:51:44.769Z,80.10
2023-03-21T11:55:13.055Z,80.00
2023-03-21T11:58:44.053Z,83.10
2023-03-21T12:02:24.820Z,80.20
2023-03-21T12:05:52.261Z,80.90
2023-03-21T12:09:28.523Z,83.90
2023-03-21T12:12:54.216Z,85.10
2023-03-21T12:16:26.453Z,85.60
2023-03-21T12:20:03.109Z,83.20
2023-03-21T12:23:30.379Z,84.00
2023-03-21T12:26:57.442Z,85.20
2023-03-21T12:30:27.537Z,85.00
2023-03-21T12:33:57.786Z,81.00
2023-03-21T12:37:24.537Z,83.80
2023-03-21T12:40:55.081Z,83.40
2023-03-21T12:44:18.376Z,84.00
2023-03-21T12:47:41.052Z,82.60
2023-03-21T12:51:05.489Z,83.80
2023-03-21T12:54:29.804Z,83.40
2023-03-21T12:57:57.888Z,84.10
2023-03-21T13:01:21.357Z,87.00
2023-03-21T13:04:45.616Z,84.10
2023-03-21T13:08:11.782Z,82.00
2023-03-21T13:11:33.838Z,83.30
2023-03-21T13:15:02.648Z,83.90
2023-03-21T13:18:49.155Z,82.90
2023-03-21T13:22:15.708Z,85.00
2023-03-21T13:25:41.233Z,84.90
2023-03-21T13:29:12.105Z,85.50
2023-03-21T13:32:34.740Z,82.40
2023-03-21T13:35:59.155Z,78.00
2023-03-21T13:39:24.511Z,78.60
2023-03-21T13:42:51.765Z,83.50
2023-03-21T13:46:14.327Z,81.60
2023-03-21T13:49:36.823Z,83.90
2023-03-21T13:53:18.157Z,82.50
2023-03-21T13:56:49.381Z,81.30
2023-03-21T14:00:18.143Z,82.00
2023-03-21T14:03:39.923Z,83.50
2023-03-21T14:07:03.041Z,78.30
2023-03-21T14:10:27.941Z,75.40
2023-03-21T14:13:51.571Z,75.50
2023-03-21T14:17:15.480Z,77.90
2023-03-21T14:20:37.938Z,75.90
2023-03-21T14:24:01.286Z,74.90
2023-03-21T14:27:23.063Z,77.20
2023-03-21T14:30:45.174Z,75.60
2023-03-21T14:34:10.125Z,75.90
2023-03-21T14:37:33.552Z,75.90
2023-03-21T14:40:55.726Z,75.70
2023-03-21T14:44:18.946Z,75.80
2023-03-21T14:47:40.580Z,75.00
2023-03-21T14:51:04.868Z,76.00
2023-03-21T14:54:26.841Z,77.90
2023-03-21T14:57:48.889Z,77.00
2023-03-21T15:01:13.905Z,77.40
2023-03-21T15:04:35.590Z,78.70
2023-03-21T15:07:59.249Z,79.80
2023-03-21T15:11:28.585Z,79.70
2023-03-21T15:14:50.322Z,83.50
2023-03-21T15:18:14.721Z,81.10
2023-03-21T15:21:38.077Z,83.80
2023-03-21T15:25:02.248Z,78.10
2023-03-21T15:28:24.959Z,81.90
2023-03-21T15:31:47.541Z,80.00
2023-03-21T15:35:13.826Z,80.50
2023-03-21T15:38:36.976Z,80.70
2023-03-21T15:42:01.413Z,80.30
2023-03-21T15:45:23.814Z,79.00
2023-03-21T15:48:45.402Z,81.00
2023-03-21T15:52:11.138Z,78.40
2023-03-21T15:55:39.331Z,80.90
2023-03-21T15:59:03.925Z,79.20
2023-03-21T16:02:29.283Z,80.10
2023-03-21T16:06:04.387Z,77.10
2023-03-21T16:09:26.100Z,76.10
2023-03-21T16:12:48.752Z,84.40
2023-03-21T16:16:15.373Z,86.00
2023-03-21T16:19:37.034Z,87.20
2023-03-21T16:22:58.712Z,87.80
2023-03-21T16:26:21.112Z,88.30
2023-03-21T16:29:42.702Z,90.00
2023-03-21T16:33:05.674Z,89.70
2023-03-21T16:36:29.074Z,90.30
2023-03-21T16:39:50.753Z,90.70
2023-03-21T16:43:12.361Z,91.10
2023-03-21T16:46:33.950Z,91.10
2023-03-21T16:49:56.902Z,91.60
2023-03-21T16:53:18.509Z,91.50
2023-03-21T16:56:42.073Z,91.90
2023-03-21T17:00:04.166Z,92.60
2023-03-21T17:03:25.808Z,92.70
2023-03-21T17:06:49.889Z,92.70
2023-03-21T17:10:14.993Z,92.90
2023-03-21T17:13:36.589Z,93.30
2023-03-21T17:16:58.257Z,93.30
2023-03-21T17:20:20.823Z,93.60
2023-03-21T17:23:43.826Z,93.80
2023-03-21T17:27:07.903Z,94.20
2023-03-21T17:30:30.951Z,94.20
2023-03-21T17:33:52.611Z,94.40
2023-03-21T17:37:14.429Z,94.60
2023-03-21T17:40:37.769Z,94.70
2023-03-21T17:43:59.470Z,94.90
2023-03-21T17:47:21.108Z,94.90
2023-03-21T17:50:42.722Z,94.90
2023-03-21T17:54:04.514Z,95.00
2023-03-21T17:57:27.458Z,95.00
2023-03-21T18:00:49.038Z,95.30
2023-03-21T18:04:10.622Z,95.40
2023-03-21T18:08:06.049Z,95.60
2023-03-21T18:11:14.421Z,95.90
2023-03-21T18:14:40.543Z,96.10
2023-03-21T18:18:02.391Z,95.90
2023-03-21T18:21:26.223Z,96.10
2023-03-21T18:24:50.334Z,96.10
2023-03-21T18:28:12.931Z,96.10
2023-03-21T18:31:36.094Z,96.00
2023-03-21T18:34:57.811Z,96.10
2023-03-21T18:38:19.517Z,96.20
2023-03-21T18:41:41.094Z,96.40
2023-03-21T18:45:03.110Z,97.50
2023-03-21T18:48:26.167Z,98.10
2023-03-21T18:51:47.817Z,97.90
2023-03-21T18:55:09.758Z,97.40
2023-03-21T18:58:31.390Z,97.30
2023-03-21T19:01:53.030Z,97.70
2023-03-21T19:05:18.113Z,97.50
2023-03-21T19:08:39.770Z,97.40
2023-03-21T19:12:01.505Z,97.80
2023-03-21T19:15:23.715Z,98.20
2023-03-21T19:18:54.343Z,98.40
2023-03-21T19:22:17.899Z,99.10
2023-03-21T19:25:39.675Z,98.90
2023-03-21T19:29:01.368Z,99.10
2023-03-21T19:32:22.961Z,99.00
2023-03-21T19:35:46.375Z,99.30
2023-03-21T19:39:09.600Z,99.40
2023-03-21T19:42:31.216Z,99.70
2023-03-21T19:45:53.042Z,99.90
2023-03-21T19:49:15.223Z,99.90
2023-03-21T19:52:37.050Z,99.90
2023-03-21T19:56:03.704Z,99.60
2023-03-21T19:59:25.663Z,99.70
2023-03-21T20:02:47.428Z,99.90
2023-03-21T20:06:09.779Z,99.90
2023-03-21T20:09:50.727Z,99.70
2023-03-21T20:13:14.347Z,99.60
2023-03-21T20:16:36.203Z,99.80
2023-03-21T20:19:58.048Z,99.90
2023-03-21T20:23:29.116Z,99.90
2023-03-21T20:26:50.848Z,99.90
2023-03-21T20:30:34.975Z,99.90
2023-03-21T20:33:57.977Z,99.90
2023-03-21T20:37:23.995Z,99.90
2023-03-21T20:40:45.792Z,99.90
2023-03-21T20:44:41.739Z,99.90
2023-03-21T20:47:49.369Z,99.90
2023-03-21T20:54:54.069Z,99.90
2023-03-21T20:58:36.519Z,99.90
2023-03-21T21:01:57.804Z,99.90
2023-03-21T21:05:28.039Z,99.90
2023-03-21T21:08:56.046Z,99.90
2023-03-21T21:12:17.806Z,99.90
2023-03-21T21:15:47.881Z,99.90
2023-03-21T21:19:09.569Z,99.90
2023-03-21T21:22:31.583Z,99.90
2023-03-21T21:25:54.890Z,99.90
2023-03-21T21:29:16.844Z,99.90
2023-03-21T21:32:38.828Z,99.90
2023-03-21T21:36:00.442Z,99.90
2023-03-21T21:39:22.051Z,99.90
2023-03-21T21:42:44.960Z,99.90
2023-03-21T21:46:06.760Z,99.90
2023-03-21T21:49:28.340Z,99.90
2023-03-21T21:52:49.928Z,99.90
2023-03-21T21:56:11.589Z,99.90
2023-03-21T21:59:34.503Z,99.90
2023-03-21T22:02:56.554Z,99.90
2023-03-21T22:06:18.158Z,99.90
2023-03-21T22:09:39.955Z,99.90
2023-03-21T22:13:01.591Z,99.90
2023-03-21T22:16:24.712Z,99.90
2023-03-21T22:20:02.585Z,99.90
2023-03-21T22:23:26.548Z,99.90
2023-03-21T22:26:48.260Z,99.90
2023-03-21T22:30:11.534Z,99.90
2023-03-21T22:33:34.472Z,99.90
2023-03-21T22:36:56.053Z,99.90
2023-03-21T22:40:17.704Z,99.90
2023-03-21T22:43:39.305Z,99.90
2023-03-21T22:47:01.209Z,99.90
2023-03-21T22:50:24.153Z,99.90
2023-03-21T22:53:47.579Z,99.90
2023-03-21T22:57:09.164Z,99.90
2023-03-21T23:00:30.832Z,99.90
2023-03-21T23:03:52.473Z,99.90
2023-03-21T23:07:15.474Z,99.90
2023-03-21T23:10:38.042Z,99.90
2023-03-21T23:14:07.560Z,99.90
2023-03-21T23:17:29.950Z,99.90
2023-03-21T23:20:51.564Z,99.90
2023-03-21T23:24:14.963Z,99.90
2023-03-21T23:27:36.614Z,99.90
2023-03-21T23:30:58.604Z,99.90
2023-03-21T23:34:20.190Z,99.90
2023-03-21T23:37:41.957Z,99.90
2023-03-21T23:41:07.634Z,99.90
2023-03-21T23:44:29.208Z,99.90
2023-03-21T23:47:50.826Z,99.90
2023-03-21T23:51:13.336Z,99.90
2023-03-21T23:54:35.039Z,99.90
2023-03-21T23:57:57.994Z,99.90
